CheckWX is a tool to help pilots better visualize weather data.  It is not intended as a substitute for an official pre-flight weather briefing.

03:20:45 UTC

EGFF TAF
Cardiff International Airport
Cardiff, United Kingdom
TAF EGFF 050455Z 0506/0606 26022G35KT 9999 SCT025 BECMG 0521/0524 29015G25KT BECMG 0600/0603 29012KT

Jul-5@
06:00 UTC

Jul-5 @ 06:00 UTC

Jul-5@
21:00 UTC

Jul-5 @ 21:00 UTC

TAF EGFF 050455Z 0506/0606 26022G35KT 9999 SCT025

Expired

Wind
  • 260° at 22 KTS
  • {Gusting to 35 KTS
Cloud Levels
  • Scattered at 2,500' AGL

Jul-5@
21:00 UTC

Jul-5 @ 21:00 UTC

Jul-6@
00:00 UTC

Jul-6 @ 00:00 UTC

BECMG 0521/0524 29015G25KT

Expired

Wind
  • 290° at 15 KTS
  • {Gusting to 25 KTS
Cloud Levels
  • Scattered at 2,500' AGL

Jul-6@
00:00 UTC

Jul-6 @ 00:00 UTC

Jul-6@
06:00 UTC

Jul-6 @ 06:00 UTC

BECMG 0600/0603 29012KT

Becoming

Becoming Conditions expected by Mon, Jul 6, 2020 @ 03:00 UTC

Wind
  • 290° at 12 KTS
Cloud Levels
  • Scattered at 2,500' AGL